<?xml version="1.0" encoding="UTF-8" standalone="no" ?>
<gpx xmlns="http://www.topografix.com/GPX/1/1" xmlns:xsi="http://www.w3.org/2001/XMLSchema-instance" xsi:schemaLocation="http://www.topografix.com/GPX/1/1 http://www.topografix.com/GPX/1/1/gpx.xsd" version="1.1" creator="VisuGPX - https://www.visugpx.com">
  <metadata>
    <name>07 - Saint-Félicien circuits en partant de l'Etape cavalière du Balayn </name>
    <desc><![CDATA[Ces itinéraires font partie de la collection de EquiLiberté : www.equiliberte.org Ils sont proposés par 07410 L'Étape Cavalière du Balayn à St Félicien. http://etapecavalieredubalayn.fr/index.php/contact-reservation/ Circuits NON ACCESSIBLE aux attelages ]]></desc>
  </metadata>
  <trk>
    <name><![CDATA[07 - St Félicien : Bozas : murs et murets]]></name>
    <trkseg>
      <trkpt lat="45.0938" lon="4.65203">
        <ele>620</ele>
        <time>2020-07-15T18:56:03 02:00</time>
      </trkpt>
      <trkpt lat="45.09326" lon="4.65229">
        <ele>618</ele>
        <time>2020-07-15T18:56:08 02:00</time>
      </trkpt>
      <trkpt lat="45.09226" lon="4.65199">
        <ele>616</ele>
        <time>2020-07-15T18:56:13 02:00</time>
      </trkpt>
      <trkpt lat="45.09174" lon="4.65272">
        <ele>605</ele>
        <time>2020-07-15T18:56:18 02:00</time>
      </trkpt>
      <trkpt lat="45.09177" lon="4.65456">
        <ele>583</ele>
        <time>2020-07-15T18:56:23 02:00</time>
      </trkpt>
      <trkpt lat="45.09171" lon="4.65529">
        <ele>576</ele>
        <time>2020-07-15T18:56:28 02:00</time>
      </trkpt>
      <trkpt lat="45.09102" lon="4.65653">
        <ele>568</ele>
        <time>2020-07-15T18:56:33 02:00</time>
      </trkpt>
      <trkpt lat="45.09059" lon="4.65688">
        <ele>564</ele>
        <time>2020-07-15T18:56:38 02:00</time>
      </trkpt>
      <trkpt lat="45.09026" lon="4.65761">
        <ele>560</ele>
        <time>2020-07-15T18:56:43 02:00</time>
      </trkpt>
      <trkpt lat="45.08929" lon="4.65885">
        <ele>554</ele>
        <time>2020-07-15T18:56:48 02:00</time>
      </trkpt>
      <trkpt lat="45.08902" lon="4.65915">
        <ele>554</ele>
        <time>2020-07-15T18:56:53 02:00</time>
      </trkpt>
      <trkpt lat="45.08777" lon="4.65928">
        <ele>555</ele>
        <time>2020-07-15T18:56:58 02:00</time>
      </trkpt>
      <trkpt lat="45.08711" lon="4.65945">
        <ele>561</ele>
        <time>2020-07-15T18:57:03 02:00</time>
      </trkpt>
      <trkpt lat="45.08653" lon="4.65945">
        <ele>564</ele>
        <time>2020-07-15T18:57:08 02:00</time>
      </trkpt>
      <trkpt lat="45.08559" lon="4.65907">
        <ele>558</ele>
        <time>2020-07-15T18:57:13 02:00</time>
      </trkpt>
      <trkpt lat="45.08511" lon="4.65872">
        <ele>554</ele>
        <time>2020-07-15T18:57:18 02:00</time>
      </trkpt>
      <trkpt lat="45.08447" lon="4.65902">
        <ele>544</ele>
        <time>2020-07-15T18:57:23 02:00</time>
      </trkpt>
      <trkpt lat="45.08429" lon="4.65945">
        <ele>537</ele>
        <time>2020-07-15T18:57:28 02:00</time>
      </trkpt>
      <trkpt lat="45.08387" lon="4.65941">
        <ele>531</ele>
        <time>2020-07-15T18:57:33 02:00</time>
      </trkpt>
      <trkpt lat="45.08268" lon="4.65684">
        <ele>532</ele>
        <time>2020-07-15T18:57:38 02:00</time>
      </trkpt>
      <trkpt lat="45.08159" lon="4.65731">
        <ele>524</ele>
        <time>2020-07-15T18:57:43 02:00</time>
      </trkpt>
      <trkpt lat="45.08105" lon="4.65795">
        <ele>520</ele>
        <time>2020-07-15T18:57:48 02:00</time>
      </trkpt>
      <trkpt lat="45.08002" lon="4.65799">
        <ele>516</ele>
        <time>2020-07-15T18:57:53 02:00</time>
      </trkpt>
      <trkpt lat="45.07956" lon="4.66108">
        <ele>498</ele>
        <time>2020-07-15T18:57:58 02:00</time>
      </trkpt>
      <trkpt lat="45.07978" lon="4.66263">
        <ele>483</ele>
        <time>2020-07-15T18:58:03 02:00</time>
      </trkpt>
      <trkpt lat="45.07978" lon="4.66323">
        <ele>476</ele>
        <time>2020-07-15T18:58:08 02:00</time>
      </trkpt>
      <trkpt lat="45.0789" lon="4.66267">
        <ele>470</ele>
        <time>2020-07-15T18:58:13 02:00</time>
      </trkpt>
      <trkpt lat="45.07802" lon="4.66173">
        <ele>468</ele>
        <time>2020-07-15T18:58:18 02:00</time>
      </trkpt>
      <trkpt lat="45.07723" lon="4.6607">
        <ele>471</ele>
        <time>2020-07-15T18:58:23 02:00</time>
      </trkpt>
      <trkpt lat="45.07659" lon="4.66014">
        <ele>461</ele>
        <time>2020-07-15T18:58:28 02:00</time>
      </trkpt>
      <trkpt lat="45.07657" lon="4.66131">
        <ele>455</ele>
        <time>2020-07-15T18:58:33 02:00</time>
      </trkpt>
      <trkpt lat="45.07671" lon="4.66253">
        <ele>448</ele>
        <time>2020-07-15T18:58:38 02:00</time>
      </trkpt>
      <trkpt lat="45.07681" lon="4.66301">
        <ele>445</ele>
        <time>2020-07-15T18:58:43 02:00</time>
      </trkpt>
      <trkpt lat="45.07696" lon="4.66323">
        <ele>444</ele>
        <time>2020-07-15T18:58:48 02:00</time>
      </trkpt>
      <trkpt lat="45.0772" lon="4.66353">
        <ele>441</ele>
        <time>2020-07-15T18:58:53 02:00</time>
      </trkpt>
      <trkpt lat="45.07593" lon="4.6631">
        <ele>429</ele>
        <time>2020-07-15T18:58:58 02:00</time>
      </trkpt>
      <trkpt lat="45.07565" lon="4.66284">
        <ele>425</ele>
        <time>2020-07-15T18:59:03 02:00</time>
      </trkpt>
      <trkpt lat="45.07545" lon="4.66196">
        <ele>426</ele>
        <time>2020-07-15T18:59:08 02:00</time>
      </trkpt>
      <trkpt lat="45.07505" lon="4.66147">
        <ele>420</ele>
        <time>2020-07-15T18:59:13 02:00</time>
      </trkpt>
      <trkpt lat="45.07493" lon="4.6595">
        <ele>418</ele>
        <time>2020-07-15T18:59:18 02:00</time>
      </trkpt>
      <trkpt lat="45.07393" lon="4.66138">
        <ele>398</ele>
        <time>2020-07-15T18:59:23 02:00</time>
      </trkpt>
      <trkpt lat="45.07374" lon="4.66216">
        <ele>394</ele>
        <time>2020-07-15T18:59:28 02:00</time>
      </trkpt>
      <trkpt lat="45.07317" lon="4.6628">
        <ele>395</ele>
        <time>2020-07-15T18:59:33 02:00</time>
      </trkpt>
      <trkpt lat="45.073" lon="4.66214">
        <ele>400</ele>
        <time>2020-07-15T18:59:38 02:00</time>
      </trkpt>
      <trkpt lat="45.0732" lon="4.66134">
        <ele>397</ele>
        <time>2020-07-15T18:59:43 02:00</time>
      </trkpt>
      <trkpt lat="45.07347" lon="4.66098">
        <ele>396</ele>
        <time>2020-07-15T18:59:48 02:00</time>
      </trkpt>
      <trkpt lat="45.07326" lon="4.6603">
        <ele>399</ele>
        <time>2020-07-15T18:59:53 02:00</time>
      </trkpt>
      <trkpt lat="45.073" lon="4.66016">
        <ele>404</ele>
        <time>2020-07-15T18:59:58 02:00</time>
      </trkpt>
      <trkpt lat="45.07283" lon="4.66019">
        <ele>407</ele>
        <time>2020-07-15T19:00:03 02:00</time>
      </trkpt>
      <trkpt lat="45.07276" lon="4.65979">
        <ele>409</ele>
        <time>2020-07-15T19:00:08 02:00</time>
      </trkpt>
      <trkpt lat="45.07269" lon="4.65945">
        <ele>412</ele>
        <time>2020-07-15T19:00:13 02:00</time>
      </trkpt>
      <trkpt lat="45.07253" lon="4.65952">
        <ele>415</ele>
        <time>2020-07-15T19:00:18 02:00</time>
      </trkpt>
      <trkpt lat="45.07247" lon="4.65963">
        <ele>416</ele>
        <time>2020-07-15T19:00:23 02:00</time>
      </trkpt>
      <trkpt lat="45.07235" lon="4.66008">
        <ele>418</ele>
        <time>2020-07-15T19:00:28 02:00</time>
      </trkpt>
      <trkpt lat="45.07223" lon="4.66028">
        <ele>422</ele>
        <time>2020-07-15T19:00:33 02:00</time>
      </trkpt>
      <trkpt lat="45.07228" lon="4.66066">
        <ele>422</ele>
        <time>2020-07-15T19:00:38 02:00</time>
      </trkpt>
      <trkpt lat="45.07227" lon="4.66095">
        <ele>423</ele>
        <time>2020-07-15T19:00:43 02:00</time>
      </trkpt>
      <trkpt lat="45.07212" lon="4.66125">
        <ele>427</ele>
        <time>2020-07-15T19:00:48 02:00</time>
      </trkpt>
      <trkpt lat="45.07192" lon="4.66135">
        <ele>432</ele>
        <time>2020-07-15T19:00:53 02:00</time>
      </trkpt>
      <trkpt lat="45.07173" lon="4.66106">
        <ele>438</ele>
        <time>2020-07-15T19:00:58 02:00</time>
      </trkpt>
      <trkpt lat="45.07106" lon="4.66097">
        <ele>448</ele>
        <time>2020-07-15T19:01:03 02:00</time>
      </trkpt>
      <trkpt lat="45.07074" lon="4.66092">
        <ele>452</ele>
        <time>2020-07-15T19:01:08 02:00</time>
      </trkpt>
      <trkpt lat="45.07038" lon="4.66104">
        <ele>455</ele>
        <time>2020-07-15T19:01:13 02:00</time>
      </trkpt>
      <trkpt lat="45.07011" lon="4.66091">
        <ele>460</ele>
        <time>2020-07-15T19:01:18 02:00</time>
      </trkpt>
      <trkpt lat="45.06994" lon="4.66108">
        <ele>460</ele>
        <time>2020-07-15T19:01:23 02:00</time>
      </trkpt>
      <trkpt lat="45.06916" lon="4.66031">
        <ele>467</ele>
        <time>2020-07-15T19:01:28 02:00</time>
      </trkpt>
      <trkpt lat="45.06897" lon="4.65998">
        <ele>472</ele>
        <time>2020-07-15T19:01:33 02:00</time>
      </trkpt>
      <trkpt lat="45.06814" lon="4.65996">
        <ele>479</ele>
        <time>2020-07-15T19:01:38 02:00</time>
      </trkpt>
      <trkpt lat="45.06732" lon="4.65993">
        <ele>482</ele>
        <time>2020-07-15T19:01:43 02:00</time>
      </trkpt>
      <trkpt lat="45.0669" lon="4.65964">
        <ele>487</ele>
        <time>2020-07-15T19:01:48 02:00</time>
      </trkpt>
      <trkpt lat="45.06612" lon="4.65945">
        <ele>489</ele>
        <time>2020-07-15T19:01:53 02:00</time>
      </trkpt>
      <trkpt lat="45.06536" lon="4.65916">
        <ele>489</ele>
        <time>2020-07-15T19:01:58 02:00</time>
      </trkpt>
      <trkpt lat="45.06508" lon="4.66183">
        <ele>469</ele>
        <time>2020-07-15T19:02:03 02:00</time>
      </trkpt>
      <trkpt lat="45.0652" lon="4.66338">
        <ele>464</ele>
        <time>2020-07-15T19:02:08 02:00</time>
      </trkpt>
      <trkpt lat="45.06529" lon="4.66531">
        <ele>468</ele>
        <time>2020-07-15T19:02:13 02:00</time>
      </trkpt>
      <trkpt lat="45.06541" lon="4.66758">
        <ele>465</ele>
        <time>2020-07-15T19:02:18 02:00</time>
      </trkpt>
      <trkpt lat="45.06423" lon="4.66715">
        <ele>464</ele>
        <time>2020-07-15T19:02:23 02:00</time>
      </trkpt>
      <trkpt lat="45.0619" lon="4.66728">
        <ele>446</ele>
        <time>2020-07-15T19:02:28 02:00</time>
      </trkpt>
      <trkpt lat="45.06066" lon="4.66664">
        <ele>436</ele>
        <time>2020-07-15T19:02:33 02:00</time>
      </trkpt>
      <trkpt lat="45.05996" lon="4.66668">
        <ele>430</ele>
        <time>2020-07-15T19:02:38 02:00</time>
      </trkpt>
      <trkpt lat="45.05965" lon="4.66662">
        <ele>427</ele>
        <time>2020-07-15T19:02:43 02:00</time>
      </trkpt>
      <trkpt lat="45.05943" lon="4.66606">
        <ele>427</ele>
        <time>2020-07-15T19:02:48 02:00</time>
      </trkpt>
      <trkpt lat="45.05932" lon="4.66612">
        <ele>426</ele>
        <time>2020-07-15T19:02:53 02:00</time>
      </trkpt>
      <trkpt lat="45.05911" lon="4.6666">
        <ele>422</ele>
        <time>2020-07-15T19:02:58 02:00</time>
      </trkpt>
      <trkpt lat="45.05894" lon="4.66675">
        <ele>422</ele>
        <time>2020-07-15T19:03:03 02:00</time>
      </trkpt>
      <trkpt lat="45.05896" lon="4.66741">
        <ele>421</ele>
        <time>2020-07-15T19:03:08 02:00</time>
      </trkpt>
      <trkpt lat="45.05887" lon="4.66767">
        <ele>421</ele>
        <time>2020-07-15T19:03:13 02:00</time>
      </trkpt>
      <trkpt lat="45.05835" lon="4.66767">
        <ele>423</ele>
        <time>2020-07-15T19:03:18 02:00</time>
      </trkpt>
      <trkpt lat="45.05761" lon="4.66763">
        <ele>426</ele>
        <time>2020-07-15T19:03:23 02:00</time>
      </trkpt>
      <trkpt lat="45.05738" lon="4.66773">
        <ele>427</ele>
        <time>2020-07-15T19:03:28 02:00</time>
      </trkpt>
      <trkpt lat="45.05673" lon="4.66808">
        <ele>430</ele>
        <time>2020-07-15T19:03:33 02:00</time>
      </trkpt>
      <trkpt lat="45.05618" lon="4.66874">
        <ele>436</ele>
        <time>2020-07-15T19:03:38 02:00</time>
      </trkpt>
      <trkpt lat="45.05584" lon="4.66913">
        <ele>440</ele>
        <time>2020-07-15T19:03:43 02:00</time>
      </trkpt>
      <trkpt lat="45.05515" lon="4.66857">
        <ele>446</ele>
        <time>2020-07-15T19:03:48 02:00</time>
      </trkpt>
      <trkpt lat="45.05505" lon="4.66831">
        <ele>448</ele>
        <time>2020-07-15T19:03:53 02:00</time>
      </trkpt>
      <trkpt lat="45.05497" lon="4.66797">
        <ele>452</ele>
        <time>2020-07-15T19:03:58 02:00</time>
      </trkpt>
      <trkpt lat="45.05494" lon="4.66765">
        <ele>455</ele>
        <time>2020-07-15T19:04:03 02:00</time>
      </trkpt>
      <trkpt lat="45.05515" lon="4.66718">
        <ele>456</ele>
        <time>2020-07-15T19:04:08 02:00</time>
      </trkpt>
      <trkpt lat="45.05508" lon="4.66668">
        <ele>460</ele>
        <time>2020-07-15T19:04:13 02:00</time>
      </trkpt>
      <trkpt lat="45.05506" lon="4.66638">
        <ele>462</ele>
        <time>2020-07-15T19:04:18 02:00</time>
      </trkpt>
      <trkpt lat="45.05484" lon="4.66602">
        <ele>465</ele>
        <time>2020-07-15T19:04:23 02:00</time>
      </trkpt>
      <trkpt lat="45.05446" lon="4.66516">
        <ele>468</ele>
        <time>2020-07-15T19:04:28 02:00</time>
      </trkpt>
      <trkpt lat="45.05403" lon="4.66445">
        <ele>470</ele>
        <time>2020-07-15T19:04:33 02:00</time>
      </trkpt>
      <trkpt lat="45.0534" lon="4.66419">
        <ele>471</ele>
        <time>2020-07-15T19:04:38 02:00</time>
      </trkpt>
      <trkpt lat="45.05273" lon="4.66394">
        <ele>473</ele>
        <time>2020-07-15T19:04:43 02:00</time>
      </trkpt>
      <trkpt lat="45.05211" lon="4.66353">
        <ele>473</ele>
        <time>2020-07-15T19:04:48 02:00</time>
      </trkpt>
      <trkpt lat="45.05152" lon="4.66295">
        <ele>473</ele>
        <time>2020-07-15T19:04:53 02:00</time>
      </trkpt>
      <trkpt lat="45.05111" lon="4.66226">
        <ele>472</ele>
        <time>2020-07-15T19:04:58 02:00</time>
      </trkpt>
      <trkpt lat="45.0509" lon="4.66186">
        <ele>473</ele>
        <time>2020-07-15T19:05:03 02:00</time>
      </trkpt>
      <trkpt lat="45.05024" lon="4.66139">
        <ele>470</ele>
        <time>2020-07-15T19:05:08 02:00</time>
      </trkpt>
      <trkpt lat="45.04956" lon="4.66096">
        <ele>469</ele>
        <time>2020-07-15T19:05:13 02:00</time>
      </trkpt>
      <trkpt lat="45.04917" lon="4.66064">
        <ele>470</ele>
        <time>2020-07-15T19:05:18 02:00</time>
      </trkpt>
      <trkpt lat="45.04946" lon="4.66053">
        <ele>473</ele>
        <time>2020-07-15T19:05:23 02:00</time>
      </trkpt>
      <trkpt lat="45.04971" lon="4.66022">
        <ele>478</ele>
        <time>2020-07-15T19:05:28 02:00</time>
      </trkpt>
      <trkpt lat="45.05012" lon="4.65982">
        <ele>484</ele>
        <time>2020-07-15T19:05:33 02:00</time>
      </trkpt>
      <trkpt lat="45.05074" lon="4.65938">
        <ele>492</ele>
        <time>2020-07-15T19:05:38 02:00</time>
      </trkpt>
      <trkpt lat="45.05111" lon="4.65902">
        <ele>496</ele>
        <time>2020-07-15T19:05:43 02:00</time>
      </trkpt>
      <trkpt lat="45.05124" lon="4.65864">
        <ele>499</ele>
        <time>2020-07-15T19:05:48 02:00</time>
      </trkpt>
      <trkpt lat="45.05155" lon="4.65786">
        <ele>504</ele>
        <time>2020-07-15T19:05:53 02:00</time>
      </trkpt>
      <trkpt lat="45.05182" lon="4.65707">
        <ele>508</ele>
        <time>2020-07-15T19:05:58 02:00</time>
      </trkpt>
      <trkpt lat="45.05199" lon="4.65604">
        <ele>515</ele>
        <time>2020-07-15T19:06:03 02:00</time>
      </trkpt>
      <trkpt lat="45.05217" lon="4.65516">
        <ele>521</ele>
        <time>2020-07-15T19:06:08 02:00</time>
      </trkpt>
      <trkpt lat="45.05221" lon="4.65487">
        <ele>524</ele>
        <time>2020-07-15T19:06:13 02:00</time>
      </trkpt>
      <trkpt lat="45.05221" lon="4.65459">
        <ele>528</ele>
        <time>2020-07-15T19:06:18 02:00</time>
      </trkpt>
      <trkpt lat="45.05264" lon="4.65447">
        <ele>529</ele>
        <time>2020-07-15T19:06:23 02:00</time>
      </trkpt>
      <trkpt lat="45.05302" lon="4.65395">
        <ele>535</ele>
        <time>2020-07-15T19:06:28 02:00</time>
      </trkpt>
      <trkpt lat="45.05338" lon="4.65338">
        <ele>540</ele>
        <time>2020-07-15T19:06:33 02:00</time>
      </trkpt>
      <trkpt lat="45.05393" lon="4.65274">
        <ele>542</ele>
        <time>2020-07-15T19:06:38 02:00</time>
      </trkpt>
      <trkpt lat="45.05462" lon="4.65199">
        <ele>541</ele>
        <time>2020-07-15T19:06:43 02:00</time>
      </trkpt>
      <trkpt lat="45.05487" lon="4.65166">
        <ele>540</ele>
        <time>2020-07-15T19:06:48 02:00</time>
      </trkpt>
      <trkpt lat="45.05537" lon="4.6512">
        <ele>537</ele>
        <time>2020-07-15T19:06:53 02:00</time>
      </trkpt>
      <trkpt lat="45.05566" lon="4.65086">
        <ele>537</ele>
        <time>2020-07-15T19:06:58 02:00</time>
      </trkpt>
      <trkpt lat="45.05575" lon="4.65078">
        <ele>536</ele>
        <time>2020-07-15T19:07:03 02:00</time>
      </trkpt>
      <trkpt lat="45.05564" lon="4.65031">
        <ele>540</ele>
        <time>2020-07-15T19:07:08 02:00</time>
      </trkpt>
      <trkpt lat="45.05568" lon="4.65019">
        <ele>540</ele>
        <time>2020-07-15T19:07:13 02:00</time>
      </trkpt>
      <trkpt lat="45.05566" lon="4.65054">
        <ele>539</ele>
        <time>2020-07-15T19:07:18 02:00</time>
      </trkpt>
      <trkpt lat="45.05607" lon="4.65036">
        <ele>531</ele>
        <time>2020-07-15T19:07:23 02:00</time>
      </trkpt>
      <trkpt lat="45.05618" lon="4.64992">
        <ele>530</ele>
        <time>2020-07-15T19:07:28 02:00</time>
      </trkpt>
      <trkpt lat="45.05644" lon="4.65019">
        <ele>524</ele>
        <time>2020-07-15T19:07:33 02:00</time>
      </trkpt>
      <trkpt lat="45.05671" lon="4.65032">
        <ele>518</ele>
        <time>2020-07-15T19:07:38 02:00</time>
      </trkpt>
      <trkpt lat="45.05737" lon="4.65044">
        <ele>512</ele>
        <time>2020-07-15T19:07:43 02:00</time>
      </trkpt>
      <trkpt lat="45.05759" lon="4.65078">
        <ele>510</ele>
        <time>2020-07-15T19:07:48 02:00</time>
      </trkpt>
      <trkpt lat="45.05763" lon="4.65108">
        <ele>508</ele>
        <time>2020-07-15T19:07:53 02:00</time>
      </trkpt>
      <trkpt lat="45.05761" lon="4.65139">
        <ele>507</ele>
        <time>2020-07-15T19:07:58 02:00</time>
      </trkpt>
      <trkpt lat="45.05761" lon="4.65178">
        <ele>506</ele>
        <time>2020-07-15T19:08:03 02:00</time>
      </trkpt>
      <trkpt lat="45.05767" lon="4.65202">
        <ele>506</ele>
        <time>2020-07-15T19:08:08 02:00</time>
      </trkpt>
      <trkpt lat="45.05796" lon="4.65221">
        <ele>507</ele>
        <time>2020-07-15T19:08:13 02:00</time>
      </trkpt>
      <trkpt lat="45.05817" lon="4.65227">
        <ele>509</ele>
        <time>2020-07-15T19:08:18 02:00</time>
      </trkpt>
      <trkpt lat="45.05935" lon="4.65187">
        <ele>518</ele>
        <time>2020-07-15T19:08:23 02:00</time>
      </trkpt>
      <trkpt lat="45.06023" lon="4.65172">
        <ele>522</ele>
        <time>2020-07-15T19:08:28 02:00</time>
      </trkpt>
      <trkpt lat="45.06085" lon="4.65146">
        <ele>526</ele>
        <time>2020-07-15T19:08:33 02:00</time>
      </trkpt>
      <trkpt lat="45.06142" lon="4.65089">
        <ele>531</ele>
        <time>2020-07-15T19:08:38 02:00</time>
      </trkpt>
      <trkpt lat="45.06157" lon="4.65047">
        <ele>536</ele>
        <time>2020-07-15T19:08:43 02:00</time>
      </trkpt>
      <trkpt lat="45.06178" lon="4.65015">
        <ele>540</ele>
        <time>2020-07-15T19:08:48 02:00</time>
      </trkpt>
      <trkpt lat="45.06205" lon="4.64983">
        <ele>543</ele>
        <time>2020-07-15T19:08:53 02:00</time>
      </trkpt>
      <trkpt lat="45.06278" lon="4.64941">
        <ele>546</ele>
        <time>2020-07-15T19:08:58 02:00</time>
      </trkpt>
      <trkpt lat="45.06307" lon="4.64918">
        <ele>549</ele>
        <time>2020-07-15T19:09:03 02:00</time>
      </trkpt>
      <trkpt lat="45.06337" lon="4.64908">
        <ele>550</ele>
        <time>2020-07-15T19:09:08 02:00</time>
      </trkpt>
      <trkpt lat="45.06379" lon="4.64893">
        <ele>555</ele>
        <time>2020-07-15T19:09:13 02:00</time>
      </trkpt>
      <trkpt lat="45.06438" lon="4.64869">
        <ele>564</ele>
        <time>2020-07-15T19:09:18 02:00</time>
      </trkpt>
      <trkpt lat="45.06464" lon="4.64859">
        <ele>568</ele>
        <time>2020-07-15T19:09:23 02:00</time>
      </trkpt>
      <trkpt lat="45.06486" lon="4.64861">
        <ele>570</ele>
        <time>2020-07-15T19:09:28 02:00</time>
      </trkpt>
      <trkpt lat="45.06506" lon="4.64855">
        <ele>573</ele>
        <time>2020-07-15T19:09:33 02:00</time>
      </trkpt>
      <trkpt lat="45.06526" lon="4.64841">
        <ele>575</ele>
        <time>2020-07-15T19:09:38 02:00</time>
      </trkpt>
      <trkpt lat="45.06569" lon="4.648">
        <ele>580</ele>
        <time>2020-07-15T19:09:43 02:00</time>
      </trkpt>
      <trkpt lat="45.06619" lon="4.64749">
        <ele>587</ele>
        <time>2020-07-15T19:09:48 02:00</time>
      </trkpt>
      <trkpt lat="45.06658" lon="4.64727">
        <ele>590</ele>
        <time>2020-07-15T19:09:53 02:00</time>
      </trkpt>
      <trkpt lat="45.06717" lon="4.64645">
        <ele>590</ele>
        <time>2020-07-15T19:09:58 02:00</time>
      </trkpt>
      <trkpt lat="45.06745" lon="4.64607">
        <ele>584</ele>
        <time>2020-07-15T19:10:03 02:00</time>
      </trkpt>
      <trkpt lat="45.06773" lon="4.6459">
        <ele>582</ele>
        <time>2020-07-15T19:10:08 02:00</time>
      </trkpt>
      <trkpt lat="45.06807" lon="4.6457">
        <ele>580</ele>
        <time>2020-07-15T19:10:13 02:00</time>
      </trkpt>
      <trkpt lat="45.06833" lon="4.6455">
        <ele>577</ele>
        <time>2020-07-15T19:10:18 02:00</time>
      </trkpt>
      <trkpt lat="45.06858" lon="4.64544">
        <ele>573</ele>
        <time>2020-07-15T19:10:23 02:00</time>
      </trkpt>
      <trkpt lat="45.06889" lon="4.64529">
        <ele>566</ele>
        <time>2020-07-15T19:10:28 02:00</time>
      </trkpt>
      <trkpt lat="45.06931" lon="4.64527">
        <ele>559</ele>
        <time>2020-07-15T19:10:33 02:00</time>
      </trkpt>
      <trkpt lat="45.06957" lon="4.64529">
        <ele>555</ele>
        <time>2020-07-15T19:10:38 02:00</time>
      </trkpt>
      <trkpt lat="45.06983" lon="4.64549">
        <ele>553</ele>
        <time>2020-07-15T19:10:43 02:00</time>
      </trkpt>
      <trkpt lat="45.06995" lon="4.64568">
        <ele>554</ele>
        <time>2020-07-15T19:10:48 02:00</time>
      </trkpt>
      <trkpt lat="45.07007" lon="4.64585">
        <ele>554</ele>
        <time>2020-07-15T19:10:53 02:00</time>
      </trkpt>
      <trkpt lat="45.07019" lon="4.6459">
        <ele>551</ele>
        <time>2020-07-15T19:10:58 02:00</time>
      </trkpt>
      <trkpt lat="45.07028" lon="4.64566">
        <ele>545</ele>
        <time>2020-07-15T19:11:03 02:00</time>
      </trkpt>
      <trkpt lat="45.0702" lon="4.64536">
        <ele>542</ele>
        <time>2020-07-15T19:11:08 02:00</time>
      </trkpt>
      <trkpt lat="45.07019" lon="4.64505">
        <ele>538</ele>
        <time>2020-07-15T19:11:13 02:00</time>
      </trkpt>
      <trkpt lat="45.07048" lon="4.6454">
        <ele>536</ele>
        <time>2020-07-15T19:11:18 02:00</time>
      </trkpt>
      <trkpt lat="45.07063" lon="4.64555">
        <ele>535</ele>
        <time>2020-07-15T19:11:23 02:00</time>
      </trkpt>
      <trkpt lat="45.0708" lon="4.64559">
        <ele>531</ele>
        <time>2020-07-15T19:11:28 02:00</time>
      </trkpt>
      <trkpt lat="45.07098" lon="4.64575">
        <ele>527</ele>
        <time>2020-07-15T19:11:33 02:00</time>
      </trkpt>
      <trkpt lat="45.07124" lon="4.64594">
        <ele>522</ele>
        <time>2020-07-15T19:11:38 02:00</time>
      </trkpt>
      <trkpt lat="45.07146" lon="4.64624">
        <ele>522</ele>
        <time>2020-07-15T19:11:43 02:00</time>
      </trkpt>
      <trkpt lat="45.07168" lon="4.64644">
        <ele>518</ele>
        <time>2020-07-15T19:11:48 02:00</time>
      </trkpt>
      <trkpt lat="45.07172" lon="4.6463">
        <ele>514</ele>
        <time>2020-07-15T19:11:53 02:00</time>
      </trkpt>
      <trkpt lat="45.07154" lon="4.6459">
        <ele>512</ele>
        <time>2020-07-15T19:11:58 02:00</time>
      </trkpt>
      <trkpt lat="45.07144" lon="4.64555">
        <ele>511</ele>
        <time>2020-07-15T19:12:03 02:00</time>
      </trkpt>
      <trkpt lat="45.07139" lon="4.64514">
        <ele>509</ele>
        <time>2020-07-15T19:12:08 02:00</time>
      </trkpt>
      <trkpt lat="45.07201" lon="4.64472">
        <ele>495</ele>
        <time>2020-07-15T19:12:13 02:00</time>
      </trkpt>
      <trkpt lat="45.07227" lon="4.6446">
        <ele>490</ele>
        <time>2020-07-15T19:12:18 02:00</time>
      </trkpt>
      <trkpt lat="45.07255" lon="4.64457">
        <ele>485</ele>
        <time>2020-07-15T19:12:23 02:00</time>
      </trkpt>
      <trkpt lat="45.07299" lon="4.64446">
        <ele>484</ele>
        <time>2020-07-15T19:12:28 02:00</time>
      </trkpt>
      <trkpt lat="45.07311" lon="4.64436">
        <ele>484</ele>
        <time>2020-07-15T19:12:33 02:00</time>
      </trkpt>
      <trkpt lat="45.07335" lon="4.64438">
        <ele>482</ele>
        <time>2020-07-15T19:12:38 02:00</time>
      </trkpt>
      <trkpt lat="45.07373" lon="4.6444">
        <ele>475</ele>
        <time>2020-07-15T19:12:43 02:00</time>
      </trkpt>
      <trkpt lat="45.07392" lon="4.64452">
        <ele>471</ele>
        <time>2020-07-15T19:12:48 02:00</time>
      </trkpt>
      <trkpt lat="45.07409" lon="4.64446">
        <ele>468</ele>
        <time>2020-07-15T19:12:53 02:00</time>
      </trkpt>
      <trkpt lat="45.07415" lon="4.64404">
        <ele>467</ele>
        <time>2020-07-15T19:12:58 02:00</time>
      </trkpt>
      <trkpt lat="45.07404" lon="4.64337">
        <ele>464</ele>
        <time>2020-07-15T19:13:03 02:00</time>
      </trkpt>
      <trkpt lat="45.07392" lon="4.64276">
        <ele>461</ele>
        <time>2020-07-15T19:13:08 02:00</time>
      </trkpt>
      <trkpt lat="45.07387" lon="4.64245">
        <ele>459</ele>
        <time>2020-07-15T19:13:13 02:00</time>
      </trkpt>
      <trkpt lat="45.07439" lon="4.64305">
        <ele>450</ele>
        <time>2020-07-15T19:13:18 02:00</time>
      </trkpt>
      <trkpt lat="45.07458" lon="4.64335">
        <ele>444</ele>
        <time>2020-07-15T19:13:23 02:00</time>
      </trkpt>
      <trkpt lat="45.07464" lon="4.64356">
        <ele>444</ele>
        <time>2020-07-15T19:13:28 02:00</time>
      </trkpt>
      <trkpt lat="45.07489" lon="4.64395">
        <ele>437</ele>
        <time>2020-07-15T19:13:33 02:00</time>
      </trkpt>
      <trkpt lat="45.07493" lon="4.64423">
        <ele>437</ele>
        <time>2020-07-15T19:13:38 02:00</time>
      </trkpt>
      <trkpt lat="45.07498" lon="4.6447">
        <ele>433</ele>
        <time>2020-07-15T19:13:43 02:00</time>
      </trkpt>
      <trkpt lat="45.07519" lon="4.64457">
        <ele>428</ele>
        <time>2020-07-15T19:13:48 02:00</time>
      </trkpt>
      <trkpt lat="45.07528" lon="4.64435">
        <ele>427</ele>
        <time>2020-07-15T19:13:53 02:00</time>
      </trkpt>
      <trkpt lat="45.07522" lon="4.64371">
        <ele>426</ele>
        <time>2020-07-15T19:13:58 02:00</time>
      </trkpt>
      <trkpt lat="45.07528" lon="4.64365">
        <ele>424</ele>
        <time>2020-07-15T19:14:03 02:00</time>
      </trkpt>
      <trkpt lat="45.07516" lon="4.64262">
        <ele>422</ele>
        <time>2020-07-15T19:14:08 02:00</time>
      </trkpt>
      <trkpt lat="45.0752" lon="4.642">
        <ele>419</ele>
        <time>2020-07-15T19:14:13 02:00</time>
      </trkpt>
      <trkpt lat="45.07561" lon="4.64147">
        <ele>415</ele>
        <time>2020-07-15T19:14:18 02:00</time>
      </trkpt>
      <trkpt lat="45.07573" lon="4.64109">
        <ele>415</ele>
        <time>2020-07-15T19:14:23 02:00</time>
      </trkpt>
      <trkpt lat="45.07578" lon="4.64015">
        <ele>417</ele>
        <time>2020-07-15T19:14:28 02:00</time>
      </trkpt>
      <trkpt lat="45.07563" lon="4.63952">
        <ele>419</ele>
        <time>2020-07-15T19:14:33 02:00</time>
      </trkpt>
      <trkpt lat="45.0762" lon="4.63965">
        <ele>418</ele>
        <time>2020-07-15T19:14:38 02:00</time>
      </trkpt>
      <trkpt lat="45.07613" lon="4.64041">
        <ele>416</ele>
        <time>2020-07-15T19:14:43 02:00</time>
      </trkpt>
      <trkpt lat="45.07617" lon="4.64097">
        <ele>415</ele>
        <time>2020-07-15T19:14:48 02:00</time>
      </trkpt>
      <trkpt lat="45.07601" lon="4.64176">
        <ele>413</ele>
        <time>2020-07-15T19:14:53 02:00</time>
      </trkpt>
      <trkpt lat="45.07587" lon="4.64242">
        <ele>413</ele>
        <time>2020-07-15T19:14:58 02:00</time>
      </trkpt>
      <trkpt lat="45.0759" lon="4.64296">
        <ele>413</ele>
        <time>2020-07-15T19:15:03 02:00</time>
      </trkpt>
      <trkpt lat="45.07627" lon="4.64292">
        <ele>414</ele>
        <time>2020-07-15T19:15:08 02:00</time>
      </trkpt>
      <trkpt lat="45.07705" lon="4.6427">
        <ele>421</ele>
        <time>2020-07-15T19:15:13 02:00</time>
      </trkpt>
      <trkpt lat="45.07814" lon="4.64283">
        <ele>432</ele>
        <time>2020-07-15T19:15:18 02:00</time>
      </trkpt>
      <trkpt lat="45.0782" lon="4.64284">
        <ele>432</ele>
        <time>2020-07-15T19:15:23 02:00</time>
      </trkpt>
      <trkpt lat="45.07818" lon="4.64265">
        <ele>433</ele>
        <time>2020-07-15T19:15:28 02:00</time>
      </trkpt>
      <trkpt lat="45.07807" lon="4.64235">
        <ele>434</ele>
        <time>2020-07-15T19:15:33 02:00</time>
      </trkpt>
      <trkpt lat="45.07804" lon="4.64191">
        <ele>438</ele>
        <time>2020-07-15T19:15:38 02:00</time>
      </trkpt>
      <trkpt lat="45.07802" lon="4.64167">
        <ele>440</ele>
        <time>2020-07-15T19:15:43 02:00</time>
      </trkpt>
      <trkpt lat="45.07796" lon="4.6406">
        <ele>447</ele>
        <time>2020-07-15T19:15:48 02:00</time>
      </trkpt>
      <trkpt lat="45.07804" lon="4.6401">
        <ele>452</ele>
        <time>2020-07-15T19:15:53 02:00</time>
      </trkpt>
      <trkpt lat="45.07806" lon="4.63957">
        <ele>455</ele>
        <time>2020-07-15T19:15:58 02:00</time>
      </trkpt>
      <trkpt lat="45.07809" lon="4.63919">
        <ele>456</ele>
        <time>2020-07-15T19:16:03 02:00</time>
      </trkpt>
      <trkpt lat="45.07814" lon="4.63884">
        <ele>456</ele>
        <time>2020-07-15T19:16:08 02:00</time>
      </trkpt>
      <trkpt lat="45.07867" lon="4.63912">
        <ele>467</ele>
        <time>2020-07-15T19:16:13 02:00</time>
      </trkpt>
      <trkpt lat="45.07917" lon="4.63951">
        <ele>473</ele>
        <time>2020-07-15T19:16:18 02:00</time>
      </trkpt>
      <trkpt lat="45.07936" lon="4.63973">
        <ele>474</ele>
        <time>2020-07-15T19:16:23 02:00</time>
      </trkpt>
      <trkpt lat="45.07957" lon="4.63986">
        <ele>476</ele>
        <time>2020-07-15T19:16:28 02:00</time>
      </trkpt>
      <trkpt lat="45.07991" lon="4.64003">
        <ele>479</ele>
        <time>2020-07-15T19:16:33 02:00</time>
      </trkpt>
      <trkpt lat="45.08005" lon="4.64039">
        <ele>478</ele>
        <time>2020-07-15T19:16:38 02:00</time>
      </trkpt>
      <trkpt lat="45.08027" lon="4.64056">
        <ele>478</ele>
        <time>2020-07-15T19:16:43 02:00</time>
      </trkpt>
      <trkpt lat="45.08048" lon="4.64039">
        <ele>481</ele>
        <time>2020-07-15T19:16:48 02:00</time>
      </trkpt>
      <trkpt lat="45.08061" lon="4.64021">
        <ele>483</ele>
        <time>2020-07-15T19:16:53 02:00</time>
      </trkpt>
      <trkpt lat="45.08077" lon="4.64019">
        <ele>484</ele>
        <time>2020-07-15T19:16:58 02:00</time>
      </trkpt>
      <trkpt lat="45.08116" lon="4.64021">
        <ele>488</ele>
        <time>2020-07-15T19:17:03 02:00</time>
      </trkpt>
      <trkpt lat="45.08131" lon="4.64011">
        <ele>490</ele>
        <time>2020-07-15T19:17:08 02:00</time>
      </trkpt>
      <trkpt lat="45.08146" lon="4.6397">
        <ele>491</ele>
        <time>2020-07-15T19:17:13 02:00</time>
      </trkpt>
      <trkpt lat="45.08155" lon="4.63946">
        <ele>491</ele>
        <time>2020-07-15T19:17:18 02:00</time>
      </trkpt>
      <trkpt lat="45.08166" lon="4.63979">
        <ele>494</ele>
        <time>2020-07-15T19:17:23 02:00</time>
      </trkpt>
      <trkpt lat="45.08167" lon="4.64007">
        <ele>495</ele>
        <time>2020-07-15T19:17:28 02:00</time>
      </trkpt>
      <trkpt lat="45.08175" lon="4.64028">
        <ele>496</ele>
        <time>2020-07-15T19:17:33 02:00</time>
      </trkpt>
      <trkpt lat="45.0821" lon="4.64044">
        <ele>501</ele>
        <time>2020-07-15T19:17:38 02:00</time>
      </trkpt>
      <trkpt lat="45.08215" lon="4.64095">
        <ele>504</ele>
        <time>2020-07-15T19:17:43 02:00</time>
      </trkpt>
      <trkpt lat="45.08223" lon="4.64146">
        <ele>507</ele>
        <time>2020-07-15T19:17:48 02:00</time>
      </trkpt>
      <trkpt lat="45.08233" lon="4.64169">
        <ele>509</ele>
        <time>2020-07-15T19:17:53 02:00</time>
      </trkpt>
      <trkpt lat="45.08244" lon="4.64174">
        <ele>512</ele>
        <time>2020-07-15T19:17:58 02:00</time>
      </trkpt>
      <trkpt lat="45.08261" lon="4.64141">
        <ele>515</ele>
        <time>2020-07-15T19:18:03 02:00</time>
      </trkpt>
      <trkpt lat="45.08282" lon="4.64108">
        <ele>517</ele>
        <time>2020-07-15T19:18:08 02:00</time>
      </trkpt>
      <trkpt lat="45.0832" lon="4.64163">
        <ele>526</ele>
        <time>2020-07-15T19:18:13 02:00</time>
      </trkpt>
      <trkpt lat="45.084" lon="4.64094">
        <ele>532</ele>
        <time>2020-07-15T19:18:18 02:00</time>
      </trkpt>
      <trkpt lat="45.08418" lon="4.64094">
        <ele>534</ele>
        <time>2020-07-15T19:18:23 02:00</time>
      </trkpt>
      <trkpt lat="45.08405" lon="4.64116">
        <ele>536</ele>
        <time>2020-07-15T19:18:28 02:00</time>
      </trkpt>
      <trkpt lat="45.08399" lon="4.64139">
        <ele>537</ele>
        <time>2020-07-15T19:18:33 02:00</time>
      </trkpt>
      <trkpt lat="45.08442" lon="4.64161">
        <ele>545</ele>
        <time>2020-07-15T19:18:38 02:00</time>
      </trkpt>
      <trkpt lat="45.0845" lon="4.64178">
        <ele>546</ele>
        <time>2020-07-15T19:18:43 02:00</time>
      </trkpt>
      <trkpt lat="45.08455" lon="4.64198">
        <ele>547</ele>
        <time>2020-07-15T19:18:48 02:00</time>
      </trkpt>
      <trkpt lat="45.0846" lon="4.64216">
        <ele>548</ele>
        <time>2020-07-15T19:18:53 02:00</time>
      </trkpt>
      <trkpt lat="45.08471" lon="4.6424">
        <ele>550</ele>
        <time>2020-07-15T19:18:58 02:00</time>
      </trkpt>
      <trkpt lat="45.0848" lon="4.64258">
        <ele>551</ele>
        <time>2020-07-15T19:19:03 02:00</time>
      </trkpt>
      <trkpt lat="45.08487" lon="4.6427">
        <ele>551</ele>
        <time>2020-07-15T19:19:08 02:00</time>
      </trkpt>
      <trkpt lat="45.08532" lon="4.64278">
        <ele>560</ele>
        <time>2020-07-15T19:19:13 02:00</time>
      </trkpt>
      <trkpt lat="45.08542" lon="4.64247">
        <ele>563</ele>
        <time>2020-07-15T19:19:18 02:00</time>
      </trkpt>
      <trkpt lat="45.08548" lon="4.64227">
        <ele>564</ele>
        <time>2020-07-15T19:19:23 02:00</time>
      </trkpt>
      <trkpt lat="45.08581" lon="4.6423">
        <ele>571</ele>
        <time>2020-07-15T19:19:28 02:00</time>
      </trkpt>
      <trkpt lat="45.08617" lon="4.64176">
        <ele>574</ele>
        <time>2020-07-15T19:19:33 02:00</time>
      </trkpt>
      <trkpt lat="45.08623" lon="4.64215">
        <ele>578</ele>
        <time>2020-07-15T19:19:38 02:00</time>
      </trkpt>
      <trkpt lat="45.08634" lon="4.64247">
        <ele>582</ele>
        <time>2020-07-15T19:19:43 02:00</time>
      </trkpt>
      <trkpt lat="45.08664" lon="4.64264">
        <ele>590</ele>
        <time>2020-07-15T19:19:48 02:00</time>
      </trkpt>
      <trkpt lat="45.08657" lon="4.643">
        <ele>591</ele>
        <time>2020-07-15T19:19:53 02:00</time>
      </trkpt>
      <trkpt lat="45.08676" lon="4.64337">
        <ele>597</ele>
        <time>2020-07-15T19:19:58 02:00</time>
      </trkpt>
      <trkpt lat="45.0871" lon="4.6435">
        <ele>601</ele>
        <time>2020-07-15T19:20:03 02:00</time>
      </trkpt>
      <trkpt lat="45.08776" lon="4.64365">
        <ele>607</ele>
        <time>2020-07-15T19:20:08 02:00</time>
      </trkpt>
      <trkpt lat="45.08848" lon="4.64365">
        <ele>611</ele>
        <time>2020-07-15T19:20:13 02:00</time>
      </trkpt>
      <trkpt lat="45.08887" lon="4.64384">
        <ele>613</ele>
        <time>2020-07-15T19:20:18 02:00</time>
      </trkpt>
      <trkpt lat="45.08913" lon="4.6441">
        <ele>616</ele>
        <time>2020-07-15T19:20:23 02:00</time>
      </trkpt>
      <trkpt lat="45.0894" lon="4.64416">
        <ele>619</ele>
        <time>2020-07-15T19:20:28 02:00</time>
      </trkpt>
      <trkpt lat="45.08983" lon="4.64414">
        <ele>623</ele>
        <time>2020-07-15T19:20:33 02:00</time>
      </trkpt>
      <trkpt lat="45.0911" lon="4.64472">
        <ele>634</ele>
        <time>2020-07-15T19:20:38 02:00</time>
      </trkpt>
      <trkpt lat="45.09167" lon="4.64511">
        <ele>636</ele>
        <time>2020-07-15T19:20:43 02:00</time>
      </trkpt>
      <trkpt lat="45.09205" lon="4.64515">
        <ele>633</ele>
        <time>2020-07-15T19:20:48 02:00</time>
      </trkpt>
      <trkpt lat="45.0924" lon="4.64539">
        <ele>635</ele>
        <time>2020-07-15T19:20:53 02:00</time>
      </trkpt>
      <trkpt lat="45.09308" lon="4.64543">
        <ele>632</ele>
        <time>2020-07-15T19:20:58 02:00</time>
      </trkpt>
      <trkpt lat="45.09343" lon="4.64534">
        <ele>629</ele>
        <time>2020-07-15T19:21:03 02:00</time>
      </trkpt>
      <trkpt lat="45.09366" lon="4.6468">
        <ele>642</ele>
        <time>2020-07-15T19:21:08 02:00</time>
      </trkpt>
      <trkpt lat="45.09376" lon="4.64768">
        <ele>645</ele>
        <time>2020-07-15T19:21:13 02:00</time>
      </trkpt>
      <trkpt lat="45.09373" lon="4.6485">
        <ele>644</ele>
        <time>2020-07-15T19:21:18 02:00</time>
      </trkpt>
      <trkpt lat="45.09376" lon="4.64972">
        <ele>637</ele>
        <time>2020-07-15T19:21:23 02:00</time>
      </trkpt>
      <trkpt lat="45.09408" lon="4.64963">
        <ele>635</ele>
        <time>2020-07-15T19:21:28 02:00</time>
      </trkpt>
      <trkpt lat="45.09426" lon="4.64998">
        <ele>631</ele>
        <time>2020-07-15T19:21:33 02:00</time>
      </trkpt>
      <trkpt lat="45.09423" lon="4.65036">
        <ele>628</ele>
        <time>2020-07-15T19:21:38 02:00</time>
      </trkpt>
      <trkpt lat="45.09393" lon="4.65086">
        <ele>626</ele>
        <time>2020-07-15T19:21:43 02:00</time>
      </trkpt>
      <trkpt lat="45.09399" lon="4.65202">
        <ele>619</ele>
        <time>2020-07-15T19:21:48 02:00</time>
      </trkpt>
    </trkseg>
  </trk>
</gpx>